Time;durP1;ratioP1;P1;durP2;ratioP2;P2;SDS_P1;SDS_P2;PMS_P1;PMS_P2;Temp;Humidity;BMP_temperature;BMP_pressure;BME280_temperature;BME280_humidity;BME280_pressure;Samples;Min_cycle;Max_cycle;Signal;HPM_P1;HPM_P2
2022/06/02 00:01:01;;;;;;;3.50;2.20;;;10.70;99.90;;;;;;5006643;28;20461;-83
2022/06/02 00:03:59;;;;;;;3.30;2.00;;;10.80;99.90;;;;;;5006768;28;20379;-85
2022/06/02 00:07:00;;;;;;;3.83;2.00;;;11.00;99.90;;;;;;4929368;29;20378;-85
2022/06/02 00:09:45;;;;;;;3.38;1.63;;;11.30;99.90;;;;;;4939102;28;20393;-85
2022/06/02 00:12:24;;;;;;;1.90;1.40;;;11.30;99.90;;;;;;5026249;28;20437;-87
2022/06/02 00:15:12;;;;;;;3.93;1.70;;;11.20;99.90;;;;;;5009696;28;20981;-85
2022/06/02 00:18:12;;;;;;;2.55;1.77;;;11.20;99.90;;;;;;5026679;28;20849;-84
2022/06/02 00:20:59;;;;;;;5.25;1.90;;;11.20;99.90;;;;;;5026472;28;20477;-84
2022/06/02 00:23:53;;;;;;;4.35;2.05;;;11.40;99.90;;;;;;5026049;28;20393;-85
2022/06/02 00:27:04;;;;;;;4.20;1.80;;;11.50;99.90;;;;;;5026768;28;20374;-87
2022/06/02 00:29:51;;;;;;;1.23;1.13;;;11.50;99.90;;;;;;5013057;28;20385;-88
2022/06/02 00:32:50;;;;;;;1.90;1.20;;;11.70;99.90;;;;;;5026210;28;20988;-86
2022/06/02 00:35:36;;;;;;;4.47;1.70;;;11.90;99.90;;;;;;5025778;28;20401;-85
2022/06/02 00:38:26;;;;;;;3.78;1.60;;;12.10;99.90;;;;;;5026543;28;20757;-85
2022/06/02 00:40:54;;;;;;;2.53;1.50;;;12.10;99.90;;;;;;5026418;28;20892;-85
2022/06/02 00:43:29;;;;;;;5.78;1.80;;;12.10;99.90;;;;;;5071663;28;20375;-87
2022/06/02 00:46:05;;;;;;;3.33;1.60;;;12.20;99.90;;;;;;5088026;28;20456;-87
2022/06/02 00:48:56;;;;;;;2.65;1.90;;;12.40;99.90;;;;;;5088143;28;20400;-87
2022/06/02 00:52:01;;;;;;;2.45;1.20;;;12.40;99.90;;;;;;5088239;28;20908;-85
2022/06/02 00:58:03;;;;;;;1.73;1.30;;;12.50;99.90;;;;;;5006271;28;20406;-85
2022/06/02 01:00:41;;;;;;;2.00;1.00;;;12.60;99.90;;;;;;5006171;28;20407;-86
2022/06/02 01:03:22;;;;;;;1.75;1.08;;;12.70;99.90;;;;;;5006186;28;20382;-85
2022/06/02 01:06:01;;;;;;;1.80;1.20;;;12.80;99.90;;;;;;5006070;28;20383;-86
2022/06/02 01:08:42;;;;;;;2.08;1.15;;;12.90;99.90;;;;;;4989634;28;20407;-87
2022/06/02 01:11:36;;;;;;;2.23;1.07;;;13.00;99.90;;;;;;5009154;28;20469;-85
2022/06/02 01:14:24;;;;;;;2.03;1.13;;;13.00;99.90;;;;;;5009750;28;20900;-85
2022/06/02 01:17:01;;;;;;;2.80;1.30;;;13.30;99.90;;;;;;5009884;28;20371;-86
2022/06/02 01:19:55;;;;;;;2.07;1.10;;;13.30;99.90;;;;;;5009889;28;20383;-85
2022/06/02 01:22:36;;;;;;;2.15;1.10;;;13.40;99.90;;;;;;5009975;28;20830;-87
2022/06/02 01:25:40;;;;;;;1.67;1.00;;;13.60;99.60;;;;;;5009397;28;20380;-85
2022/06/02 01:28:07;;;;;;;3.53;1.00;;;13.70;98.80;;;;;;5009136;28;20406;-85
2022/06/02 01:31:15;;;;;;;1.17;0.90;;;13.70;99.40;;;;;;5026478;28;20373;-86
2022/06/02 01:34:23;;;;;;;1.38;0.73;;;13.70;98.40;;;;;;5091059;28;20361;-86
2022/06/02 01:37:07;;;;;;;1.40;0.60;;;13.80;97.30;;;;;;5009377;28;20826;-87
2022/06/02 01:39:49;;;;;;;1.30;0.60;;;13.80;97.70;;;;;;5009551;28;20451;-85
2022/06/02 01:42:35;;;;;;;0.55;0.50;;;13.80;96.40;;;;;;5008996;28;20382;-86
2022/06/02 01:45:18;;;;;;;0.65;0.50;;;13.70;96.00;;;;;;5009245;28;20501;-86
2022/06/02 01:47:58;;;;;;;0.88;0.52;;;13.90;96.30;;;;;;5009403;28;20414;-87
2022/06/02 01:50:37;;;;;;;1.10;0.40;;;14.00;93.40;;;;;;4992512;28;20409;-86
2022/06/02 01:53:10;;;;;;;0.80;0.50;;;14.10;92.30;;;;;;5009112;28;20462;-87
2022/06/02 01:55:42;;;;;;;0.90;0.50;;;14.00;92.00;;;;;;5009088;28;20398;-86
2022/06/02 01:58:36;;;;;;;1.23;0.50;;;14.00;92.10;;;;;;5009264;28;20410;-87
2022/06/02 02:01:22;;;;;;;1.52;0.47;;;14.10;92.30;;;;;;5008555;28;20382;-89
2022/06/02 02:04:02;;;;;;;1.85;0.50;;;14.00;91.90;;;;;;5008560;28;20956;-85
2022/06/02 02:07:13;;;;;;;1.50;0.50;;;14.10;91.30;;;;;;5008677;28;20410;-86
2022/06/02 02:09:46;;;;;;;1.80;0.40;;;14.20;91.30;;;;;;4931300;29;20413;-85
2022/06/02 02:12:42;;;;;;;1.95;0.50;;;14.30;91.40;;;;;;4977845;28;20384;-87
2022/06/02 02:15:27;;;;;;;1.25;0.40;;;14.30;90.50;;;;;;5028719;28;20796;-87
2022/06/02 02:18:30;;;;;;;2.53;0.50;;;14.30;91.40;;;;;;5028255;28;20378;-85
2022/06/02 02:21:06;;;;;;;1.67;0.50;;;14.50;90.90;;;;;;5028297;28;20378;-87
2022/06/02 02:23:53;;;;;;;0.90;0.43;;;14.60;90.80;;;;;;5028068;28;20417;-86
2022/06/02 02:26:33;;;;;;;2.33;0.50;;;14.80;90.20;;;;;;5028458;28;20457;-86
2022/06/02 02:29:31;;;;;;;3.25;0.60;;;15.00;90.20;;;;;;5027808;28;20456;-86
2022/06/02 02:32:28;;;;;;;2.90;0.60;;;15.10;87.40;;;;;;5028312;28;20571;-86
2022/06/02 02:35:13;;;;;;;4.93;0.60;;;15.40;87.00;;;;;;5027952;28;20476;-85
2022/06/02 02:37:55;;;;;;;2.67;0.50;;;15.70;84.80;;;;;;5028374;28;20386;-86
2022/06/02 02:40:31;;;;;;;1.85;0.50;;;15.90;83.50;;;;;;5027810;28;20401;-86
2022/06/02 02:43:07;;;;;;;2.53;0.70;;;15.80;81.90;;;;;;5027967;28;20381;-85
2022/06/02 02:46:04;;;;;;;2.70;0.60;;;15.90;83.20;;;;;;5021564;28;20388;-86
2022/06/02 02:48:43;;;;;;;2.03;0.55;;;15.80;80.30;;;;;;5089020;28;20918;-86
2022/06/02 02:51:16;;;;;;;2.53;0.50;;;15.60;80.90;;;;;;5091036;28;20352;-89
2022/06/02 02:53:58;;;;;;;3.80;0.70;;;15.50;81.60;;;;;;5090355;28;20770;-86
2022/06/02 02:56:49;;;;;;;1.35;0.50;;;15.50;80.80;;;;;;5092086;28;20364;-86
2022/06/02 02:59:29;;;;;;;2.03;0.60;;;15.60;81.60;;;;;;5090940;28;20368;-85
2022/06/02 03:02:13;;;;;;;3.20;0.65;;;15.70;81.60;;;;;;5090918;28;20357;-88
2022/06/02 03:04:50;;;;;;;3.25;0.70;;;15.60;80.10;;;;;;5091515;28;20376;-89
2022/06/02 03:07:19;;;;;;;1.02;0.60;;;15.40;82.70;;;;;;5091356;28;20844;-89
2022/06/02 03:10:26;;;;;;;2.50;0.65;;;15.40;82.40;;;;;;5090811;28;20418;-88
2022/06/02 03:13:06;;;;;;;1.70;0.60;;;15.10;82.60;;;;;;5090330;28;20753;-86
2022/06/02 03:15:57;;;;;;;8.70;0.80;;;14.90;86.60;;;;;;5090080;28;20365;-87
2022/06/02 03:18:45;;;;;;;1.92;0.60;;;14.90;85.20;;;;;;5091431;28;20436;-86
2022/06/02 03:21:21;;;;;;;2.50;0.70;;;14.80;86.70;;;;;;5090088;28;20371;-89
2022/06/02 03:24:19;;;;;;;2.13;0.57;;;14.70;85.30;;;;;;5091580;28;20432;-89
2022/06/02 03:27:04;;;;;;;2.20;0.70;;;14.70;87.20;;;;;;5089779;28;20448;-87
2022/06/02 03:29:31;;;;;;;2.80;0.57;;;15.20;85.60;;;;;;5089450;28;20390;-88
2022/06/02 03:32:06;;;;;;;4.40;0.73;;;14.90;85.40;;;;;;5089736;28;20364;-87
2022/06/02 03:35:02;;;;;;;2.40;0.70;;;14.80;83.70;;;;;;5088363;28;20384;-88
2022/06/02 03:37:36;;;;;;;1.80;0.60;;;14.90;84.90;;;;;;5070806;28;20452;-88
2022/06/02 03:40:22;;;;;;;2.33;0.60;;;14.90;86.00;;;;;;5089768;28;20379;-87
2022/06/02 03:43:23;;;;;;;2.63;0.75;;;14.90;85.00;;;;;;5089435;28;20415;-88
2022/06/02 03:46:05;;;;;;;1.25;0.55;;;15.00;85.50;;;;;;5088725;28;20391;-88
2022/06/02 03:49:03;;;;;;;4.40;0.70;;;15.20;83.70;;;;;;5089409;28;20396;-89
2022/06/02 03:51:42;;;;;;;3.50;0.60;;;15.20;82.20;;;;;;5088771;28;20364;-86
2022/06/02 03:54:24;;;;;;;1.23;0.50;;;15.40;82.50;;;;;;5071194;28;20412;-87
2022/06/02 03:57:19;;;;;;;2.13;0.60;;;15.50;82.60;;;;;;5089324;28;20896;-86
2022/06/02 04:00:12;;;;;;;2.20;0.52;;;15.70;81.50;;;;;;5089890;28;20448;-87
2022/06/02 04:03:15;;;;;;;1.33;0.68;;;15.60;84.80;;;;;;5065898;28;20380;-86
2022/06/02 04:06:17;;;;;;;1.88;0.60;;;15.60;82.80;;;;;;4987426;28;20380;-87
2022/06/02 04:09:07;;;;;;;2.88;0.60;;;15.90;83.40;;;;;;4929460;29;20414;-89
2022/06/02 04:14:54;;;;;;;1.73;0.70;;;15.70;81.00;;;;;;4930891;29;20433;-90
2022/06/02 04:17:45;;;;;;;1.52;0.63;;;15.70;79.30;;;;;;4931020;29;20858;-88
2022/06/02 04:20:36;;;;;;;2.40;0.70;;;15.70;81.00;;;;;;4930203;29;20382;-88
2022/06/02 04:23:26;;;;;;;1.35;0.60;;;15.60;79.60;;;;;;4929778;29;20386;-87
2022/06/02 04:26:23;;;;;;;2.30;0.60;;;15.60;79.90;;;;;;4930093;29;20933;-86
2022/06/02 04:29:04;;;;;;;1.83;0.73;;;15.50;79.70;;;;;;4929934;29;20506;-89
2022/06/02 04:31:31;;;;;;;1.63;0.70;;;15.40;80.50;;;;;;4929883;29;20399;-89
2022/06/02 04:34:16;;;;;;;2.65;0.73;;;15.40;80.30;;;;;;4929287;29;20398;-88
2022/06/02 04:37:21;;;;;;;2.90;0.70;;;15.40;81.50;;;;;;4929503;29;20394;-88
2022/06/02 04:40:17;;;;;;;0.90;0.60;;;15.50;79.00;;;;;;4928647;29;20529;-88
2022/06/02 04:43:00;;;;;;;1.45;0.70;;;15.50;79.80;;;;;;4987344;28;20447;-88
2022/06/02 04:45:50;;;;;;;2.95;0.80;;;15.50;81.40;;;;;;5071061;28;20895;-88
2022/06/02 04:48:39;;;;;;;1.73;0.82;;;15.60;80.70;;;;;;5092452;28;20392;-86
2022/06/02 04:51:34;;;;;;;2.38;0.80;;;15.80;77.90;;;;;;5091954;28;20372;-87
2022/06/02 04:54:31;;;;;;;2.00;0.73;;;15.90;76.80;;;;;;5092221;28;20444;-87
2022/06/02 04:57:13;;;;;;;2.92;0.80;;;16.00;78.20;;;;;;5074020;28;20368;-88
2022/06/02 05:00:28;;;;;;;1.38;0.70;;;16.10;76.80;;;;;;5092004;28;20863;-88
2022/06/02 05:03:17;;;;;;;2.05;0.70;;;16.10;75.80;;;;;;4990948;28;20384;-88
2022/06/02 05:06:18;;;;;;;3.60;0.77;;;15.90;79.20;;;;;;4990661;28;20886;-88
2022/06/02 05:08:55;;;;;;;1.95;0.60;;;15.70;77.00;;;;;;4932828;29;20418;-89
2022/06/02 05:11:51;;;;;;;1.55;0.70;;;15.50;76.70;;;;;;4932969;29;20513;-86
2022/06/02 05:14:32;;;;;;;1.80;0.70;;;15.50;77.30;;;;;;4875662;29;20395;-87
2022/06/02 05:17:19;;;;;;;1.88;0.70;;;15.50;76.70;;;;;;4875823;29;20399;-87
2022/06/02 05:20:07;;;;;;;2.72;0.80;;;15.50;79.80;;;;;;4877886;29;20880;-85
2022/06/02 05:23:04;;;;;;;1.90;0.70;;;15.50;77.60;;;;;;4881917;29;20397;-85
2022/06/02 05:25:53;;;;;;;2.70;0.70;;;15.40;77.70;;;;;;4881160;29;20461;-86
2022/06/02 05:28:40;;;;;;;1.50;0.70;;;15.20;78.60;;;;;;4876548;29;20422;-87
2022/06/02 05:31:18;;;;;;;4.80;1.55;;;15.20;78.50;;;;;;4876084;29;20411;-87
2022/06/02 05:34:17;;;;;;;1.90;0.60;;;15.10;79.70;;;;;;4876714;29;20492;-88
2022/06/02 05:37:00;;;;;;;1.10;0.50;;;15.10;79.70;;;;;;4876284;29;20395;-85
2022/06/02 05:39:39;;;;;;;2.03;0.60;;;15.10;80.00;;;;;;4959931;28;20381;-88
2022/06/02 05:42:22;;;;;;;1.67;0.70;;;15.10;79.80;;;;;;4971115;28;20389;-88
2022/06/02 05:45:11;;;;;;;2.67;0.80;;;15.00;80.40;;;;;;4974423;28;20386;-85
2022/06/02 05:48:04;;;;;;;1.80;0.80;;;14.70;80.40;;;;;;5009697;28;20509;-88
2022/06/02 05:50:48;;;;;;;1.83;0.60;;;14.40;83.00;;;;;;5027642;28;20377;-86
2022/06/02 05:53:41;;;;;;;3.70;2.95;;;14.20;82.40;;;;;;5090649;28;20844;-87
2022/06/02 05:56:17;;;;;;;3.58;2.28;;;14.10;83.20;;;;;;5090334;28;20369;-83
2022/06/02 05:58:51;;;;;;;2.50;0.90;;;14.10;84.80;;;;;;5091349;28;20373;-85
2022/06/02 06:01:31;;;;;;;2.15;0.90;;;14.00;86.60;;;;;;5072829;28;20372;-84
2022/06/02 06:04:11;;;;;;;1.77;1.00;;;13.90;87.20;;;;;;5090836;28;20855;-85
2022/06/02 06:06:56;;;;;;;1.73;0.80;;;13.80;88.50;;;;;;5091119;28;20735;-85
2022/06/02 06:09:47;;;;;;;2.40;0.85;;;13.60;89.80;;;;;;5090413;28;20392;-85
2022/06/02 06:12:50;;;;;;;4.78;1.10;;;13.60;90.20;;;;;;5091063;28;20437;-85
2022/06/02 06:15:35;;;;;;;3.22;1.10;;;13.40;91.90;;;;;;5090518;28;20369;-85
2022/06/02 06:18:31;;;;;;;2.50;1.38;;;13.40;92.70;;;;;;5090589;28;20357;-84
2022/06/02 06:21:35;;;;;;;3.20;2.25;;;13.30;94.10;;;;;;4989012;28;20396;-84
2022/06/02 06:24:13;;;;;;;4.47;1.80;;;13.20;94.70;;;;;;4972408;28;20381;-84
2022/06/02 06:26:52;;;;;;;7.25;2.40;;;13.10;95.10;;;;;;4989883;28;20381;-90
2022/06/02 06:29:52;;;;;;;4.07;1.48;;;13.10;96.00;;;;;;4988629;28;20429;-85
2022/06/02 06:32:40;;;;;;;5.20;2.93;;;13.00;98.00;;;;;;4989399;28;20385;-84
2022/06/02 06:35:33;;;;;;;4.25;2.20;;;12.90;98.20;;;;;;4995885;28;20391;-86
2022/06/02 06:38:06;;;;;;;3.90;2.00;;;12.80;98.90;;;;;;5008527;28;20391;-86
2022/06/02 06:40:53;;;;;;;3.97;1.85;;;12.70;99.50;;;;;;5008786;28;20409;-86
2022/06/02 06:43:23;;;;;;;5.85;1.90;;;12.50;99.90;;;;;;5008421;28;20458;-85
2022/06/02 06:46:03;;;;;;;5.10;1.88;;;12.30;99.90;;;;;;4991696;28;20832;-85
2022/06/02 06:48:38;;;;;;;4.47;2.20;;;12.30;99.90;;;;;;5007808;28;20403;-86
2022/06/02 06:51:23;;;;;;;3.47;2.08;;;12.20;99.90;;;;;;5007879;28;20375;-84
2022/06/02 06:54:34;;;;;;;4.45;2.10;;;12.10;99.90;;;;;;5008505;28;20925;-89
2022/06/02 06:57:25;;;;;;;3.87;1.90;;;12.00;99.90;;;;;;5037578;28;20460;-88
2022/06/02 07:00:19;;;;;;;5.40;2.00;;;11.80;99.90;;;;;;5090866;28;20373;-86
2022/06/02 07:03:02;;;;;;;5.03;2.10;;;11.70;99.90;;;;;;5090025;28;20463;-84
2022/06/02 07:05:47;;;;;;;6.60;2.38;;;11.60;99.90;;;;;;5092372;28;20375;-82
2022/06/02 07:08:36;;;;;;;8.45;3.13;;;11.40;99.90;;;;;;5088631;28;20760;-84
2022/06/02 07:17:47;;;;;;;8.55;5.78;;;11.20;99.90;;;;;;5089815;28;20429;-84
2022/06/02 07:20:40;;;;;;;7.20;5.03;;;11.10;99.90;;;;;;5089319;28;20367;-85
2022/06/02 07:23:13;;;;;;;7.53;4.05;;;11.00;99.90;;;;;;5008178;28;20407;-82
2022/06/02 07:25:58;;;;;;;9.15;3.80;;;10.90;99.90;;;;;;5007424;28;20426;-82
2022/06/02 07:29:20;;;;;;;7.43;3.10;;;10.90;99.90;;;;;;5008699;28;20434;-84
2022/06/02 07:32:04;;;;;;;6.53;3.10;;;10.80;99.90;;;;;;4930303;29;20384;-86
2022/06/02 07:35:13;;;;;;;6.03;3.67;;;10.70;99.90;;;;;;4929809;29;20405;-84
2022/06/02 07:38:01;;;;;;;7.65;3.80;;;10.60;99.90;;;;;;4929701;29;20449;-84
2022/06/02 07:41:06;;;;;;;9.55;4.47;;;10.60;99.90;;;;;;4929661;29;20378;-86
2022/06/02 07:44:00;;;;;;;10.95;4.88;;;10.60;99.90;;;;;;4929698;29;20909;-87
2022/06/02 07:46:48;;;;;;;10.93;5.00;;;10.60;99.90;;;;;;4929606;29;20382;-84
2022/06/02 07:49:50;;;;;;;14.87;5.43;;;10.50;99.90;;;;;;4930648;29;20996;-88
2022/06/02 07:52:54;;;;;;;11.07;5.87;;;10.50;99.90;;;;;;4926471;29;20386;-85
2022/06/02 07:55:36;;;;;;;11.55;6.78;;;10.50;99.90;;;;;;4929785;29;20390;-85
2022/06/02 07:58:53;;;;;;;11.18;6.53;;;10.40;99.90;;;;;;4929902;29;20444;-86
2022/06/02 08:01:20;;;;;;;11.32;6.38;;;10.40;99.90;;;;;;4910378;29;20391;-83
2022/06/02 08:04:11;;;;;;;10.85;6.35;;;10.30;99.90;;;;;;4912214;29;20421;-86
2022/06/02 08:07:04;;;;;;;18.45;12.20;;;10.30;99.90;;;;;;4912733;29;20390;-85
2022/06/02 08:09:44;;;;;;;13.73;9.52;;;10.30;99.90;;;;;;4949206;29;20448;-85
2022/06/02 08:12:26;;;;;;;14.15;8.40;;;10.20;99.90;;;;;;4952284;29;20357;-87
2022/06/02 08:15:36;;;;;;;;;;;;;;;;;;;;;
2022/06/02 08:18:13;;;;;;;16.33;9.40;;;10.10;99.90;;;;;;4948871;29;20398;-84
2022/06/02 08:20:57;;;;;;;20.00;11.87;;;10.00;99.90;;;;;;4952617;28;20446;-86
2022/06/02 08:23:48;;;;;;;16.20;10.40;;;9.90;99.90;;;;;;4953391;29;20384;-86
2022/06/02 08:26:23;;;;;;;21.15;13.40;;;9.90;99.90;;;;;;4952546;28;20400;-85
2022/06/02 08:29:10;;;;;;;24.80;11.93;;;9.80;99.90;;;;;;4952082;28;20989;-85
2022/06/02 08:32:04;;;;;;;17.45;10.40;;;9.90;99.90;;;;;;4952217;29;20380;-85
2022/06/02 08:34:36;;;;;;;16.40;10.30;;;9.80;99.90;;;;;;4952146;29;20408;-85
2022/06/02 08:37:11;;;;;;;15.77;9.90;;;9.80;99.90;;;;;;4976812;28;20429;-85
2022/06/02 08:39:56;;;;;;;16.97;10.70;;;9.80;99.90;;;;;;5092385;28;20395;-85
2022/06/02 08:42:44;;;;;;;16.27;9.97;;;9.80;99.90;;;;;;5092629;28;20886;-85
2022/06/02 08:45:40;;;;;;;16.40;9.73;;;9.80;99.90;;;;;;5090891;28;20459;-84
2022/06/02 08:48:29;;;;;;;13.35;9.73;;;9.80;99.90;;;;;;5092144;28;20396;-85
2022/06/02 08:51:02;;;;;;;12.32;9.00;;;9.70;99.90;;;;;;5092115;28;20364;-85
2022/06/02 08:54:02;;;;;;;14.55;9.20;;;9.80;99.90;;;;;;5092048;28;20369;-84
2022/06/02 08:57:22;;;;;;;11.45;7.50;;;9.70;99.90;;;;;;5092325;28;20390;-85
2022/06/02 09:00:10;;;;;;;12.15;7.30;;;9.80;99.90;;;;;;5010121;28;20383;-85
2022/06/02 09:03:09;;;;;;;12.80;8.25;;;9.80;99.90;;;;;;5010628;28;20387;-84
2022/06/02 09:06:12;;;;;;;12.15;8.65;;;9.70;99.90;;;;;;4932567;29;20385;-85
2022/06/02 09:09:07;;;;;;;11.95;8.00;;;9.70;99.90;;;;;;4932903;29;20437;-85
2022/06/02 09:11:50;;;;;;;12.00;7.65;;;9.60;99.90;;;;;;4857408;29;20389;-84
2022/06/02 09:14:43;;;;;;;9.23;6.53;;;9.60;99.90;;;;;;4857183;29;20401;-84
2022/06/02 09:17:35;;;;;;;10.60;7.53;;;9.60;99.90;;;;;;4857388;29;20400;-85
2022/06/02 09:20:40;;;;;;;11.25;6.07;;;9.60;99.90;;;;;;4857677;29;20399;-87
2022/06/02 09:23:16;;;;;;;10.57;5.80;;;9.50;99.90;;;;;;4855704;29;20535;-84
2022/06/02 09:25:52;;;;;;;9.97;6.00;;;9.50;99.90;;;;;;4857309;29;20754;-85
2022/06/02 09:28:27;;;;;;;12.20;6.30;;;9.50;99.90;;;;;;4857604;29;20412;-83
2022/06/02 09:31:16;;;;;;;11.40;7.28;;;9.40;99.90;;;;;;4857179;29;20469;-81
2022/06/02 09:34:14;;;;;;;10.82;7.13;;;9.40;99.90;;;;;;4901280;29;20383;-82
2022/06/02 09:37:19;;;;;;;10.80;6.90;;;9.30;99.90;;;;;;4951255;28;20399;-85
2022/06/02 09:40:17;;;;;;;10.13;6.75;;;9.30;99.90;;;;;;4951302;28;20383;-85
2022/06/02 09:43:25;;;;;;;8.82;6.88;;;9.30;99.90;;;;;;5001369;28;20406;-88
2022/06/02 09:46:16;;;;;;;11.53;7.93;;;9.30;99.90;;;;;;5010738;28;20477;-85
2022/06/02 09:48:49;;;;;;;12.57;8.18;;;9.30;99.90;;;;;;5056628;28;20400;-83
2022/06/02 09:51:37;;;;;;;11.68;7.80;;;9.30;99.90;;;;;;5091360;28;20356;-84
2022/06/02 09:54:24;;;;;;;12.00;7.63;;;9.30;99.90;;;;;;5090865;28;20376;-87
2022/06/02 10:00:11;;;;;;;13.77;8.50;;;9.30;99.90;;;;;;5091006;28;20418;-85
2022/06/02 10:03:10;;;;;;;16.05;10.10;;;9.30;99.90;;;;;;5090477;28;20414;-83
2022/06/02 10:05:55;;;;;;;14.80;10.15;;;9.30;99.90;;;;;;5008862;28;20384;-84
2022/06/02 10:08:58;;;;;;;14.20;9.60;;;9.30;99.90;;;;;;5008921;28;20425;-84
2022/06/02 10:11:40;;;;;;;13.25;9.45;;;9.20;99.90;;;;;;5008836;28;20514;-85
2022/06/02 10:14:28;;;;;;;15.85;9.50;;;9.20;99.90;;;;;;5009075;28;20434;-85
2022/06/02 10:17:27;;;;;;;14.77;9.32;;;9.20;99.90;;;;;;5009173;28;20462;-86
2022/06/02 10:20:27;;;;;;;14.13;8.80;;;9.20;99.90;;;;;;5009394;28;20451;-84
2022/06/02 10:23:17;;;;;;;17.13;9.43;;;9.20;99.90;;;;;;5009273;28;20451;-84
2022/06/02 10:26:19;;;;;;;13.57;9.73;;;9.10;99.90;;;;;;5009195;28;20914;-85
2022/06/02 10:29:04;;;;;;;16.00;10.10;;;9.10;99.90;;;;;;5010366;28;20439;-86
2022/06/02 10:31:47;;;;;;;15.60;9.50;;;9.00;99.90;;;;;;5008730;28;20378;-84
2022/06/02 10:34:42;;;;;;;14.52;9.90;;;9.00;99.90;;;;;;5009983;28;20380;-84
2022/06/02 10:37:24;;;;;;;14.77;9.95;;;8.90;99.90;;;;;;5008625;28;20851;-85
2022/06/02 10:40:39;;;;;;;16.40;12.30;;;8.80;99.90;;;;;;5008503;28;20383;-85
2022/06/02 10:43:35;;;;;;;16.73;11.65;;;8.70;99.90;;;;;;5064626;28;20455;-88
2022/06/02 10:46:30;;;;;;;24.00;17.13;;;8.70;99.90;;;;;;5076361;28;20756;-83
2022/06/02 10:49:08;;;;;;;22.13;17.08;;;8.60;99.90;;;;;;5090668;28;20404;-85
2022/06/02 10:51:53;;;;;;;29.60;25.17;;;8.60;99.90;;;;;;5090624;28;20361;-85
2022/06/02 10:54:39;;;;;;;25.65;21.45;;;8.50;99.90;;;;;;5090231;28;20372;-83
2022/06/02 10:57:37;;;;;;;28.15;21.63;;;8.50;99.90;;;;;;5089873;28;20471;-87
2022/06/02 11:00:23;;;;;;;28.25;23.48;;;8.40;99.90;;;;;;5079259;28;20384;-86
2022/06/02 11:03:08;;;;;;;43.50;36.00;;;8.40;99.90;;;;;;5090014;28;20909;-83
2022/06/02 11:05:38;;;;;;;36.10;31.00;;;8.30;99.90;;;;;;5089669;28;20369;-82
2022/06/02 11:08:49;;;;;;;33.80;26.83;;;8.20;99.90;;;;;;5089281;28;20396;-83
2022/06/02 11:11:19;;;;;;;30.63;23.55;;;8.20;99.90;;;;;;5008395;28;20488;-83
2022/06/02 11:14:07;;;;;;;33.70;28.00;;;8.10;99.90;;;;;;4990824;28;20400;-83
2022/06/02 11:17:20;;;;;;;66.50;54.55;;;8.00;99.90;;;;;;4991067;28;20772;-85
2022/06/02 11:20:17;;;;;;;50.70;43.17;;;8.00;99.90;;;;;;5007400;28;20429;-88
2022/06/02 11:23:05;;;;;;;45.10;35.58;;;7.90;99.90;;;;;;5007781;28;20383;-85
2022/06/02 11:25:35;;;;;;;41.77;31.43;;;7.90;99.90;;;;;;5007842;28;20444;-82
2022/06/02 11:28:08;;;;;;;33.93;25.60;;;8.00;99.90;;;;;;5007832;28;20476;-82
2022/06/02 11:31:08;;;;;;;36.20;29.85;;;8.00;99.90;;;;;;5007059;28;20437;-84
2022/06/02 11:33:53;;;;;;;38.33;32.73;;;8.00;99.90;;;;;;5007122;28;20406;-84
2022/06/02 11:37:01;;;;;;;39.28;33.13;;;8.00;99.90;;;;;;5006913;28;20391;-82
2022/06/02 11:39:42;;;;;;;40.92;35.08;;;8.10;99.90;;;;;;5006797;28;20383;-83
2022/06/02 11:42:41;;;;;;;40.40;32.57;;;8.10;99.90;;;;;;5007676;28;20375;-82
2022/06/02 11:45:32;;;;;;;37.08;32.85;;;8.10;99.90;;;;;;5006884;28;20392;-83
2022/06/02 11:47:59;;;;;;;32.40;28.88;;;8.10;99.90;;;;;;5055102;28;20774;-84
2022/06/02 11:50:55;;;;;;;34.70;28.45;;;8.10;99.90;;;;;;5089363;28;20376;-84
2022/06/02 11:53:34;;;;;;;29.27;25.77;;;8.10;99.90;;;;;;5089249;28;20380;-86
2022/06/02 11:56:37;;;;;;;28.42;22.85;;;8.10;99.90;;;;;;5088550;28;20452;-86
2022/06/02 11:59:10;;;;;;;26.35;20.48;;;8.10;99.90;;;;;;5088432;28;20472;-82
2022/06/02 12:01:53;;;;;;;25.42;20.77;;;8.10;99.90;;;;;;5089220;28;20422;-84
2022/06/02 12:05:12;;;;;;;24.23;21.20;;;8.10;99.90;;;;;;5088547;28;20390;-85
2022/06/02 12:07:44;;;;;;;27.40;23.42;;;8.10;99.90;;;;;;5006732;28;20433;-82
2022/06/02 12:10:45;;;;;;;26.58;23.17;;;8.10;99.90;;;;;;5006682;28;20437;-82
2022/06/02 12:13:40;;;;;;;30.75;25.40;;;8.10;99.90;;;;;;5006717;28;20453;-84
2022/06/02 12:16:46;;;;;;;28.60;24.13;;;8.20;99.90;;;;;;5006410;28;20375;-86
2022/06/02 12:19:49;;;;;;;22.55;19.33;;;8.20;99.90;;;;;;5006768;28;20755;-89
2022/06/02 12:22:31;;;;;;;20.60;17.00;;;8.20;99.90;;;;;;5007175;28;20387;-82
2022/06/02 12:25:16;;;;;;;19.63;15.02;;;8.20;99.90;;;;;;5006862;28;20470;-85
2022/06/02 12:28:01;;;;;;;18.23;14.70;;;8.20;99.90;;;;;;5006775;28;20476;-87
2022/06/02 12:31:12;;;;;;;19.73;15.00;;;8.20;99.90;;;;;;5006718;28;20394;-86
2022/06/02 12:33:55;;;;;;;18.63;14.50;;;8.10;99.90;;;;;;5006696;28;20466;-87
2022/06/02 12:36:37;;;;;;;17.92;13.80;;;8.10;99.90;;;;;;5006333;28;20417;-86
2022/06/02 12:39:45;;;;;;;21.25;14.27;;;8.10;99.90;;;;;;5007128;28;20383;-86
2022/06/02 12:42:30;;;;;;;20.50;13.93;;;8.10;99.90;;;;;;5023125;28;20872;-86
2022/06/02 12:45:00;;;;;;;17.03;13.30;;;8.10;99.90;;;;;;5088455;28;20360;-84
2022/06/02 12:47:50;;;;;;;16.13;12.82;;;8.10;99.90;;;;;;5088418;28;20410;-85
2022/06/02 12:50:43;;;;;;;17.02;12.60;;;8.10;99.90;;;;;;5088127;28;20388;-85
2022/06/02 12:53:44;;;;;;;19.52;12.70;;;8.10;99.90;;;;;;5089233;28;20459;-87
2022/06/02 12:56:52;;;;;;;17.90;12.57;;;8.10;99.90;;;;;;5088483;28;20365;-82
2022/06/02 13:00:13;;;;;;;19.08;12.63;;;8.10;99.90;;;;;;5088240;28;20402;-87
2022/06/02 13:03:10;;;;;;;18.83;13.20;;;8.10;99.90;;;;;;4967270;28;20382;-88
2022/06/02 13:05:48;;;;;;;16.25;13.43;;;8.10;99.90;;;;;;4967962;28;20387;-85
2022/06/02 13:08:45;;;;;;;15.55;13.35;;;8.10;99.90;;;;;;4970879;28;20882;-88
2022/06/02 13:11:19;;;;;;;18.67;13.00;;;8.10;99.90;;;;;;4971210;28;20413;-85
2022/06/02 13:13:52;;;;;;;19.88;12.98;;;8.10;99.90;;;;;;4971633;28;20387;-86
2022/06/02 13:16:43;;;;;;;19.20;13.57;;;8.10;99.90;;;;;;4970691;28;20394;-85
2022/06/02 13:19:37;;;;;;;18.05;13.57;;;8.10;99.90;;;;;;4971003;28;20409;-82
2022/06/02 13:22:15;;;;;;;17.73;13.70;;;8.10;99.90;;;;;;4970965;28;20453;-85
2022/06/02 13:25:03;;;;;;;19.60;14.38;;;8.10;99.90;;;;;;4970478;28;20398;-87
2022/06/02 13:28:01;;;;;;;18.08;14.20;;;8.10;99.90;;;;;;4970474;28;20386;-87
2022/06/02 13:31:12;;;;;;;16.52;12.82;;;8.10;99.90;;;;;;4970483;28;20863;-84
2022/06/02 13:34:05;;;;;;;18.42;13.52;;;8.10;99.90;;;;;;4970562;28;20426;-87
2022/06/02 13:36:53;;;;;;;18.77;12.88;;;8.10;99.90;;;;;;4951252;28;20442;-85
2022/06/02 13:39:35;;;;;;;17.33;13.02;;;8.10;99.90;;;;;;5044784;28;20442;-83
2022/06/02 13:42:15;;;;;;;18.07;13.67;;;8.10;99.90;;;;;;5091225;28;20365;-83
2022/06/02 13:45:06;;;;;;;18.33;13.27;;;8.10;99.90;;;;;;5091002;28;20411;-83
2022/06/02 13:47:39;;;;;;;19.20;14.88;;;8.00;99.90;;;;;;5091312;28;20365;-85
2022/06/02 13:50:38;;;;;;;18.98;15.57;;;8.00;99.90;;;;;;5072843;28;20740;-83
2022/06/02 13:57:30;;;;;;;22.60;17.73;;;8.00;99.90;;;;;;5091003;28;20365;-83
2022/06/02 13:59:27;;;;;;;21.07;18.30;;;7.80;99.90;;;;;;5091612;28;20780;-84
2022/06/02 14:02:12;;;;;;;20.13;17.63;;;7.80;99.90;;;;;;5091358;28;20474;-87
2022/06/02 14:04:56;;;;;;;20.75;16.85;;;7.70;99.90;;;;;;5091051;28;20361;-86
2022/06/02 14:07:32;;;;;;;19.77;17.48;;;7.70;99.90;;;;;;5090756;28;20379;-85
2022/06/02 14:10:27;;;;;;;22.88;18.15;;;7.60;99.90;;;;;;5090981;28;20403;-89
2022/06/02 14:12:57;;;;;;;23.88;18.38;;;7.50;99.90;;;;;;5090622;28;20451;-83
2022/06/02 14:16:01;;;;;;;28.20;22.45;;;7.40;99.90;;;;;;5090499;28;20871;-84
2022/06/02 14:19:01;;;;;;;31.83;28.55;;;7.20;99.90;;;;;;5089665;28;20395;-83
2022/06/02 14:21:45;;;;;;;37.75;33.63;;;7.20;99.90;;;;;;4988901;28;20373;-82
2022/06/02 14:24:33;;;;;;;33.25;29.85;;;7.10;99.90;;;;;;4989081;28;20417;-83
2022/06/02 14:27:47;;;;;;;33.45;29.95;;;7.00;99.90;;;;;;4988834;28;20377;-83
2022/06/02 14:30:28;;;;;;;37.50;33.58;;;7.00;99.90;;;;;;4893337;29;20743;-83
2022/06/02 14:33:16;;;;;;;38.65;34.80;;;6.90;99.90;;;;;;4892981;29;20807;-83
2022/06/02 14:36:08;;;;;;;41.88;37.50;;;6.80;99.90;;;;;;4892558;29;20440;-84
2022/06/02 14:39:02;;;;;;;37.00;33.30;;;6.70;99.90;;;;;;4893017;29;20431;-83
2022/06/02 14:42:01;;;;;;;44.03;39.63;;;6.60;99.90;;;;;;4892979;29;20454;-82
2022/06/02 14:44:54;;;;;;;40.95;36.90;;;6.60;99.90;;;;;;4893017;29;20421;-83
2022/06/02 14:47:36;;;;;;;43.80;39.20;;;6.50;99.90;;;;;;4892945;29;20393;-85
2022/06/02 14:50:18;;;;;;;42.83;38.42;;;6.50;99.90;;;;;;4893019;29;21018;-85
2022/06/02 14:52:53;;;;;;;112.82;96.70;;;6.50;99.90;;;;;;4892673;29;20397;-84
2022/06/02 14:55:38;;;;;;;66.70;59.38;;;6.40;99.90;;;;;;4892508;29;20404;-88